Startpagina
METAR-TAF:

METAR-TAF

Vliegvelden :

Brunei, Brunei

Brunei International Airport

breedte: 04-56N, lengte: 114-56E, hoogte: 22 m

Actueel weer

Dit bericht is 37 minuten geleden gemaakt, om 01:30 UTC
Wind 3 kt uit het zuiden
Temperatuur 30°C
Vochtigheid 70%
Druk 1010 hPa
Zicht 10 km of meer
Weinig wolken op 1600 ft
Gebroken wolken op 30000 ft

METAR: WBSB 210130Z 19003KT 9999 FEW016 BKN300 30/24 Q1010 NOSIG

Tijdstip: 10:07 (02:07 UTC)

Verwachting

Dit bericht is 3 uur en het 7 minuten geleden gemaakt, om 23:00 UTC
Verwachting geldig van 21 om 00 UTC tot 22 om 06 UTC
Wind 5 kt uit het zuidzuidwesten
Zicht 10 km of meer
Weinig wolken op 1500 ft
Wijzigt naar
van 21 om 03 UTC tot 21 om 05 UTC
Wind 10 kt uit het noordnoordwesten
Verspreide wolken op 1600 ft
Weinig wolken op 1700 ft, Cumulonimbus.
Tijdelijke
van 21 om 08 UTC tot 21 om 13 UTC
Zicht: 3000 m
onweer, regen

TAF: WBSB 202300Z 2100/2206 20005KT 9999 FEW015 BECMG 2103/2105 34010KT SCT016 FEW017CB TEMPO 2108/2113 3000 TSRA

Waarnemingen en weersverwachtingen van meer dan 4000 vliegvelden (METAR en TAF).

De beschikbare stations zijn de gele en rode punten op de kaart.

Ga met uw muis naar het station om de naam te zien.

Klik dan om waarnemingen en weersverwachtingen te zien.

kaart wijzigen: klik op de groene knoppen met een zwart kruis om in te zoomen, op de groene knop met een streepje om uit te zoomen of op de groene pijlen voor aangrenzende kaarten.


METAR-TAF: